Zingem, Belgium
Current Conditions -  °F | °C
As of 1:25 AM on Wednesday 22 Oct 2014 (Local Time) from EBCV Reporting Station
Broken Clouds Broken Clouds  
Wind Chill: 40°   Ceiling: 5500
Heat Index: 46°   Visibility: 6mi
Dew Point: 39°   Wind: 16mph
Humidity: 76%   Direction: 280°W
Pressure: 30.03"   Gusts: NA
Location:  50.9°N, 3.65°E
Report Text: EBCV 212325Z AUTO 28014KT 9999 FEW044/// BKN055/// 08/04 Q1017 BLU
Loading
Personal Weather Stations






























Interactive Weather Map
Tropical Storm Tracking
New forecast layout! Learn more

10-Day Weather Forecast

Advertisements
Track Severe Weather on mobile